PWSweather.com
Personal Weather Stations
Station Observations
KNVELKO7
Elko, NV 89801

Elko, NV 89801

Lat: 40.963233, Lon: -115.592836

Elevation: 5230

Station Type: WS-2812

Latest ConditionsUpdated 5:37:26 AM PST Saturday, Dec 3, 2016
Currently Today's Max Today's Min Today's Average
Temperature 25.7°F-3.5°C 25.7°F-3.5°C 19.6°F-6.9°C 23.2°F-4.9°C
Dew Point 18.3°F-7.6°C 18.4°F-7.6°C 13.8°F-10.1°C 17.0°F-8.3°C
Winds 7.6 mph SW12.2 kmh SW 10.5 mph SW16.9 kmh SW - 6.0 mph 9.7 kmh
Wind Gusts 12.8 mph20.6 kmh 12.8 mph20.6 kmh - -
Humidity 73% 79% 73% 77%
Pressure 30.25 in1024.4 mb 30.28 in1025.4 mb 30.23 in1023.7 mb -
Hour Temp Dew Point Humidity Winds Wind Gusts Pressure Precip Precip Rate Daily Precip Total
05:37 AM 25.7°F-3.5°C 18.3°F-7.6°C 73% 7.6 mph SW12.2 kmh SW 12.8 mph20.6 kmh 30.25 in1024.4 mb 0.00 in0.0 mm 0.00 in0.0 mm 0.00 in0.0 mm
05:32 AM 25.6°F-3.6°C 18.4°F-7.6°C 74% 9.8 mph SW15.8 kmh SW 11.6 mph18.7 kmh 30.25 in1024.4 mb 0.00 in0.0 mm 0.00 in0.0 mm 0.00 in0.0 mm
05:27 AM 25.2°F-3.8°C 18.0°F-7.8°C 74% 7.3 mph SW11.7 kmh SW 11.6 mph18.7 kmh 30.25 in1024.4 mb 0.00 in0.0 mm 0.00 in0.0 mm 0.00 in0.0 mm
05:22 AM 24.8°F-4.0°C 18.0°F-7.8°C 75% 7.4 mph S11.9 kmh S 8.1 mph13.0 kmh 30.25 in1024.4 mb 0.00 in0.0 mm 0.00 in0.0 mm 0.00 in0.0 mm
05:17 AM 24.3°F-4.3°C 17.5°F-8.1°C 75% 5.8 mph SW9.3 kmh SW 6.9 mph11.1 kmh 30.25 in1024.4 mb 0.00 in0.0 mm 0.00 in0.0 mm 0.00 in0.0 mm
05:12 AM 24.1°F-4.4°C 17.3°F-8.2°C 75% 1.5 mph WSW2.4 kmh WSW 6.3 mph10.1 kmh 30.25 in1024.4 mb 0.00 in0.0 mm 0.00 in0.0 mm 0.00 in0.0 mm
05:07 AM 24.1°F-4.4°C 17.3°F-8.2°C 75% 4.9 mph ENE7.9 kmh ENE 6.3 mph10.1 kmh 30.25 in1024.4 mb 0.00 in0.0 mm 0.00 in0.0 mm 0.00 in0.0 mm
05:02 AM 24.1°F-4.4°C 17.0°F-8.3°C 74% 5.2 mph E8.4 kmh E 8.9 mph14.3 kmh 30.24 in1024.0 mb 0.00 in0.0 mm 0.00 in0.0 mm 0.00 in0.0 mm
04:57 AM 24.1°F-4.4°C 17.0°F-8.3°C 74% 5.1 mph E8.2 kmh E 9.6 mph15.4 kmh 30.24 in1024.0 mb 0.00 in0.0 mm 0.00 in0.0 mm 0.00 in0.0 mm
04:52 AM 24.5°F-4.2°C 17.4°F-8.1°C 74% 9.1 mph ENE14.6 kmh ENE 9.6 mph15.4 kmh 30.24 in1024.0 mb 0.00 in0.0 mm 0.00 in0.0 mm 0.00 in0.0 mm
04:47 AM 24.7°F-4.1°C 17.8°F-7.9°C 75% 4.8 mph E7.7 kmh E 9.8 mph15.8 kmh 30.25 in1024.4 mb 0.00 in0.0 mm 0.00 in0.0 mm 0.00 in0.0 mm
04:42 AM 24.5°F-4.2°C 18.0°F-7.8°C 76% 4.4 mph SW7.1 kmh SW 11.4 mph18.3 kmh 30.24 in1024.0 mb 0.00 in0.0 mm 0.00 in0.0 mm 0.00 in0.0 mm
04:37 AM 24.1°F-4.4°C 17.7°F-7.9°C 76% 8.0 mph SW12.9 kmh SW 11.4 mph18.3 kmh 30.24 in1024.0 mb 0.00 in0.0 mm 0.00 in0.0 mm 0.00 in0.0 mm
04:32 AM 23.8°F-4.6°C 17.3°F-8.2°C 76% 6.1 mph SW9.8 kmh SW 8.9 mph14.3 kmh 30.24 in1024.0 mb 0.00 in0.0 mm 0.00 in0.0 mm 0.00 in0.0 mm
04:27 AM 23.4°F-4.8°C 16.9°F-8.4°C 76% 6.6 mph SW10.6 kmh SW 6.9 mph11.1 kmh 30.25 in1024.4 mb 0.00 in0.0 mm 0.00 in0.0 mm 0.00 in0.0 mm
04:22 AM 23.0°F-5.0°C 16.6°F-8.6°C 76% 6.3 mph SW10.1 kmh SW 6.9 mph11.1 kmh 30.25 in1024.4 mb 0.00 in0.0 mm 0.00 in0.0 mm 0.00 in0.0 mm
04:17 AM 22.9°F-5.1°C 16.4°F-8.7°C 76% 3.4 mph SW5.5 kmh SW 4.0 mph6.4 kmh 30.25 in1024.4 mb 0.00 in0.0 mm 0.00 in0.0 mm 0.00 in0.0 mm
04:12 AM 22.9°F-5.1°C 16.4°F-8.7°C 76% 2.2 mph SW3.5 kmh SW 5.6 mph9.0 kmh 30.24 in1024.0 mb 0.00 in0.0 mm 0.00 in0.0 mm 0.00 in0.0 mm
04:07 AM 22.9°F-5.1°C 16.4°F-8.7°C 76% 3.9 mph SW6.3 kmh SW 5.6 mph9.0 kmh 30.24 in1024.0 mb 0.00 in0.0 mm 0.00 in0.0 mm 0.00 in0.0 mm
04:02 AM 22.9°F-5.1°C 16.4°F-8.7°C 76% 5.3 mph WSW8.5 kmh WSW 8.9 mph14.3 kmh 30.25 in1024.4 mb 0.00 in0.0 mm 0.00 in0.0 mm 0.00 in0.0 mm
03:56 AM 22.9°F-5.1°C 16.4°F-8.7°C 76% 6.1 mph WSW9.8 kmh WSW 8.9 mph14.3 kmh 30.24 in1024.0 mb 0.00 in0.0 mm 0.00 in0.0 mm 0.00 in0.0 mm
03:51 AM 23.0°F-5.0°C 16.6°F-8.6°C 76% 8.3 mph SW13.4 kmh SW 8.5 mph13.7 kmh 30.24 in1024.0 mb 0.00 in0.0 mm 0.00 in0.0 mm 0.00 in0.0 mm
03:46 AM 23.2°F-4.9°C 16.7°F-8.5°C 76% 5.3 mph WSW8.5 kmh WSW 6.3 mph10.1 kmh 30.24 in1024.0 mb 0.00 in0.0 mm 0.00 in0.0 mm 0.00 in0.0 mm
03:41 AM 23.4°F-4.8°C 16.9°F-8.4°C 76% 5.1 mph WSW8.2 kmh WSW 7.4 mph11.9 kmh 30.24 in1024.0 mb 0.00 in0.0 mm 0.00 in0.0 mm 0.00 in0.0 mm
03:36 AM 23.4°F-4.8°C 17.3°F-8.2°C 77% 6.9 mph SW11.1 kmh SW 8.9 mph14.3 kmh 30.24 in1024.0 mb 0.00 in0.0 mm 0.00 in0.0 mm 0.00 in0.0 mm
03:32 AM 23.6°F-4.7°C 17.5°F-8.1°C 77% 6.2 mph WSW10.0 kmh WSW 8.9 mph14.3 kmh 30.24 in1024.0 mb 0.00 in0.0 mm 0.00 in0.0 mm 0.00 in0.0 mm
03:27 AM 23.4°F-4.8°C 17.3°F-8.2°C 77% 7.3 mph SW11.7 kmh SW 7.8 mph12.6 kmh 30.24 in1024.0 mb 0.00 in0.0 mm 0.00 in0.0 mm 0.00 in0.0 mm
03:22 AM 23.4°F-4.8°C 17.3°F-8.2°C 77% 5.9 mph SW9.5 kmh SW 9.8 mph15.8 kmh 30.23 in1023.7 mb 0.00 in0.0 mm 0.00 in0.0 mm 0.00 in0.0 mm
03:17 AM 23.4°F-4.8°C 17.3°F-8.2°C 77% 6.6 mph SW10.6 kmh SW 9.8 mph15.8 kmh 30.24 in1024.0 mb 0.00 in0.0 mm 0.00 in0.0 mm 0.00 in0.0 mm
03:12 AM 23.4°F-4.8°C 17.3°F-8.2°C 77% 7.5 mph SW12.1 kmh SW 10.5 mph16.9 kmh 30.24 in1024.0 mb 0.00 in0.0 mm 0.00 in0.0 mm 0.00 in0.0 mm
03:07 AM 23.4°F-4.8°C 17.3°F-8.2°C 77% 7.1 mph SW11.4 kmh SW 10.5 mph16.9 kmh 30.24 in1024.0 mb 0.00 in0.0 mm 0.00 in0.0 mm 0.00 in0.0 mm
03:02 AM 23.4°F-4.8°C 17.3°F-8.2°C 77% 4.9 mph SW7.9 kmh SW 8.7 mph14.0 kmh 30.24 in1024.0 mb 0.00 in0.0 mm 0.00 in0.0 mm 0.00 in0.0 mm
02:56 AM 23.6°F-4.7°C 17.5°F-8.1°C 77% 5.8 mph SW9.3 kmh SW 7.2 mph11.6 kmh 30.24 in1024.0 mb 0.00 in0.0 mm 0.00 in0.0 mm 0.00 in0.0 mm
02:51 AM 23.8°F-4.6°C 17.7°F-7.9°C 77% 5.9 mph SSW9.5 kmh SSW 7.6 mph12.2 kmh 30.24 in1024.0 mb 0.00 in0.0 mm 0.00 in0.0 mm 0.00 in0.0 mm
02:46 AM 23.8°F-4.6°C 17.7°F-7.9°C 77% 5.1 mph SW8.2 kmh SW 8.5 mph13.7 kmh 30.25 in1024.4 mb 0.00 in0.0 mm 0.00 in0.0 mm 0.00 in0.0 mm
02:41 AM 23.9°F-4.5°C 17.8°F-7.9°C 77% 4.8 mph WSW7.7 kmh WSW 8.9 mph14.3 kmh 30.25 in1024.4 mb 0.00 in0.0 mm 0.00 in0.0 mm 0.00 in0.0 mm
02:36 AM 23.9°F-4.5°C 17.8°F-7.9°C 77% 5.1 mph SW8.2 kmh SW 8.9 mph14.3 kmh 30.26 in1024.7 mb 0.00 in0.0 mm 0.00 in0.0 mm 0.00 in0.0 mm
02:31 AM 24.1°F-4.4°C 17.9°F-7.8°C 77% 4.9 mph SW7.9 kmh SW 7.4 mph11.9 kmh 30.25 in1024.4 mb 0.00 in0.0 mm 0.00 in0.0 mm 0.00 in0.0 mm
02:26 AM 24.1°F-4.4°C 17.9°F-7.8°C 77% 6.9 mph SW11.1 kmh SW 7.4 mph11.9 kmh 30.25 in1024.4 mb 0.00 in0.0 mm 0.00 in0.0 mm 0.00 in0.0 mm
02:21 AM 24.1°F-4.4°C 17.9°F-7.8°C 77% 5.7 mph SW9.2 kmh SW 7.6 mph12.2 kmh 30.25 in1024.4 mb 0.00 in0.0 mm 0.00 in0.0 mm 0.00 in0.0 mm
02:16 AM 24.1°F-4.4°C 17.9°F-7.8°C 77% 6.8 mph SW10.9 kmh SW 12.1 mph19.5 kmh 30.26 in1024.7 mb 0.00 in0.0 mm 0.00 in0.0 mm 0.00 in0.0 mm
02:11 AM 24.1°F-4.4°C 18.3°F-7.6°C 78% 6.6 mph SW10.6 kmh SW 12.1 mph19.5 kmh 30.26 in1024.7 mb 0.00 in0.0 mm 0.00 in0.0 mm 0.00 in0.0 mm
02:06 AM 24.1°F-4.4°C 18.3°F-7.6°C 78% 10.4 mph SW16.7 kmh SW 11.4 mph18.3 kmh 30.26 in1024.7 mb 0.00 in0.0 mm 0.00 in0.0 mm 0.00 in0.0 mm
02:01 AM 23.9°F-4.5°C 18.1°F-7.7°C 78% 7.9 mph SW12.7 kmh SW 9.8 mph15.8 kmh 30.26 in1024.7 mb 0.00 in0.0 mm 0.00 in0.0 mm 0.00 in0.0 mm
01:56 AM 23.9°F-4.5°C 18.4°F-7.6°C 79% 7.5 mph SW12.1 kmh SW 12.8 mph20.6 kmh 30.26 in1024.7 mb 0.00 in0.0 mm 0.00 in0.0 mm 0.00 in0.0 mm
01:51 AM 23.6°F-4.7°C 17.7°F-7.9°C 78% 10.3 mph SW16.6 kmh SW 12.8 mph20.6 kmh 30.26 in1024.7 mb 0.00 in0.0 mm 0.00 in0.0 mm 0.00 in0.0 mm
01:46 AM 23.4°F-4.8°C 17.6°F-8.0°C 78% 6.9 mph SW11.1 kmh SW 9.2 mph14.8 kmh 30.26 in1024.7 mb 0.00 in0.0 mm 0.00 in0.0 mm 0.00 in0.0 mm
01:41 AM 23.2°F-4.9°C 17.4°F-8.1°C 78% 6.9 mph WSW11.1 kmh WSW 9.2 mph14.8 kmh 30.26 in1024.7 mb 0.00 in0.0 mm 0.00 in0.0 mm 0.00 in0.0 mm
01:36 AM 23.2°F-4.9°C 17.4°F-8.1°C 78% 4.1 mph WSW6.6 kmh WSW 7.8 mph12.6 kmh 30.26 in1024.7 mb 0.00 in0.0 mm 0.00 in0.0 mm 0.00 in0.0 mm
01:31 AM 23.0°F-5.0°C 17.2°F-8.2°C 78% 5.9 mph SW9.5 kmh SW 7.8 mph12.6 kmh 30.26 in1024.7 mb 0.00 in0.0 mm 0.00 in0.0 mm 0.00 in0.0 mm
01:26 AM 22.7°F-5.2°C 16.8°F-8.4°C 78% 6.4 mph SW10.3 kmh SW 7.8 mph12.6 kmh 30.26 in1024.7 mb 0.00 in0.0 mm 0.00 in0.0 mm 0.00 in0.0 mm
01:21 AM 22.5°F-5.3°C 16.7°F-8.5°C 78% 6.3 mph WSW10.1 kmh WSW 6.5 mph10.5 kmh 30.26 in1024.7 mb 0.00 in0.0 mm 0.00 in0.0 mm 0.00 in0.0 mm
01:16 AM 22.3°F-5.4°C 16.5°F-8.6°C 78% 3.7 mph SW6.0 kmh SW 5.6 mph9.0 kmh 30.26 in1024.7 mb 0.00 in0.0 mm 0.00 in0.0 mm 0.00 in0.0 mm
01:11 AM 22.3°F-5.4°C 16.5°F-8.6°C 78% 4.6 mph SW7.4 kmh SW 4.7 mph7.6 kmh 30.26 in1024.7 mb 0.00 in0.0 mm 0.00 in0.0 mm 0.00 in0.0 mm
01:06 AM 22.3°F-5.4°C 16.5°F-8.6°C 78% 3.8 mph SW6.1 kmh SW 5.4 mph8.7 kmh 30.25 in1024.4 mb 0.00 in0.0 mm 0.00 in0.0 mm 0.00 in0.0 mm
01:01 AM 22.3°F-5.4°C 16.5°F-8.6°C 78% 3.8 mph SW6.1 kmh SW 8.5 mph13.7 kmh 30.26 in1024.7 mb 0.00 in0.0 mm 0.00 in0.0 mm 0.00 in0.0 mm
12:56 AM 22.1°F-5.5°C 16.7°F-8.5°C 79% 4.3 mph SW6.9 kmh SW 9.4 mph15.1 kmh 30.25 in1024.4 mb 0.00 in0.0 mm 0.00 in0.0 mm 0.00 in0.0 mm
12:51 AM 22.1°F-5.5°C 16.7°F-8.5°C 79% 8.7 mph WSW14.0 kmh WSW 12.1 mph19.5 kmh 30.25 in1024.4 mb 0.00 in0.0 mm 0.00 in0.0 mm 0.00 in0.0 mm
12:46 AM 22.0°F-5.6°C 16.5°F-8.6°C 79% 9.5 mph SW15.3 kmh SW 12.1 mph19.5 kmh 30.25 in1024.4 mb 0.00 in0.0 mm 0.00 in0.0 mm 0.00 in0.0 mm
12:41 AM 22.0°F-5.6°C 16.5°F-8.6°C 79% 10.5 mph SW16.9 kmh SW 11.0 mph17.7 kmh 30.26 in1024.7 mb 0.00 in0.0 mm 0.00 in0.0 mm 0.00 in0.0 mm
12:36 AM 21.8°F-5.7°C 16.3°F-8.7°C 79% 8.2 mph SW13.2 kmh SW 10.1 mph16.3 kmh 30.25 in1024.4 mb 0.00 in0.0 mm 0.00 in0.0 mm 0.00 in0.0 mm
12:31 AM 21.6°F-5.8°C 16.1°F-8.8°C 79% 9.5 mph SW15.3 kmh SW 10.1 mph16.3 kmh 30.25 in1024.4 mb 0.00 in0.0 mm 0.00 in0.0 mm 0.00 in0.0 mm
12:26 AM 21.4°F-5.9°C 15.9°F-8.9°C 79% 5.7 mph SW9.2 kmh SW 6.7 mph10.8 kmh 30.26 in1024.7 mb 0.00 in0.0 mm 0.00 in0.0 mm 0.00 in0.0 mm
12:21 AM 21.2°F-6.0°C 15.8°F-9.0°C 79% 5.3 mph SW8.5 kmh SW 7.4 mph11.9 kmh 30.27 in1025.1 mb 0.00 in0.0 mm 0.00 in0.0 mm 0.00 in0.0 mm
12:16 AM 20.7°F-6.3°C 15.2°F-9.3°C 79% 4.9 mph SW7.9 kmh SW 7.4 mph11.9 kmh 30.28 in1025.4 mb 0.00 in0.0 mm 0.00 in0.0 mm 0.00 in0.0 mm
12:11 AM 20.0°F-6.7°C 14.5°F-9.7°C 79% 6.1 mph SW9.8 kmh SW 7.4 mph11.9 kmh 30.28 in1025.4 mb 0.00 in0.0 mm 0.00 in0.0 mm 0.00 in0.0 mm
12:06 AM 19.8°F-6.8°C 14.0°F-10.0°C 78% Calm Calm 1.1 mph1.8 kmh 30.28 in1025.4 mb 0.00 in0.0 mm 0.00 in0.0 mm 0.00 in0.0 mm
12:01 AM 19.6°F-6.9°C 13.8°F-10.1°C 78% Calm Calm 3.6 mph5.8 kmh 30.27 in1025.1 mb 0.00 in0.0 mm 0.00 in0.0 mm 0.00 in0.0 mm